sensor_id;sensor_type;location;lat;lon;timestamp;P1;durP1;ratioP1;P2;durP2;ratioP2
21215;SDS011;10765;50.954;5.322;2023-03-25T00:01:38;3.13;;;1.00;;
21215;SDS011;10765;50.954;5.322;2023-03-25T00:04:05;3.87;;;1.10;;
21215;SDS011;10765;50.954;5.322;2023-03-25T00:06:32;3.67;;;1.23;;
21215;SDS011;10765;50.954;5.322;2023-03-25T00:08:59;3.70;;;1.30;;
21215;SDS011;10765;50.954;5.322;2023-03-25T00:11:29;3.43;;;1.03;;
21215;SDS011;10765;50.954;5.322;2023-03-25T00:13:56;1.77;;;0.90;;
21215;SDS011;10765;50.954;5.322;2023-03-25T00:16:23;2.10;;;0.90;;
21215;SDS011;10765;50.954;5.322;2023-03-25T00:18:50;3.00;;;0.87;;
21215;SDS011;10765;50.954;5.322;2023-03-25T00:21:17;2.70;;;1.00;;
21215;SDS011;10765;50.954;5.322;2023-03-25T00:23:44;2.40;;;0.80;;
21215;SDS011;10765;50.954;5.322;2023-03-25T00:26:11;3.87;;;0.80;;
21215;SDS011;10765;50.954;5.322;2023-03-25T00:28:39;2.03;;;0.80;;
21215;SDS011;10765;50.954;5.322;2023-03-25T00:31:07;1.50;;;0.90;;
21215;SDS011;10765;50.954;5.322;2023-03-25T00:33:38;4.43;;;1.30;;
21215;SDS011;10765;50.954;5.322;2023-03-25T00:36:06;2.00;;;1.00;;
21215;SDS011;10765;50.954;5.322;2023-03-25T00:38:35;3.43;;;1.10;;
21215;SDS011;10765;50.954;5.322;2023-03-25T00:41:07;3.10;;;0.90;;
21215;SDS011;10765;50.954;5.322;2023-03-25T00:43:35;6.73;;;1.50;;
21215;SDS011;10765;50.954;5.322;2023-03-25T00:46:04;2.93;;;1.13;;
21215;SDS011;10765;50.954;5.322;2023-03-25T00:48:32;2.57;;;1.07;;
21215;SDS011;10765;50.954;5.322;2023-03-25T00:50:59;2.67;;;1.13;;
21215;SDS011;10765;50.954;5.322;2023-03-25T00:53:31;3.87;;;0.97;;
21215;SDS011;10765;50.954;5.322;2023-03-25T00:55:58;3.07;;;0.90;;
21215;SDS011;10765;50.954;5.322;2023-03-25T00:58:26;2.67;;;0.90;;
21215;SDS011;10765;50.954;5.322;2023-03-25T01:00:53;3.10;;;1.20;;
21215;SDS011;10765;50.954;5.322;2023-03-25T01:03:23;2.93;;;1.30;;
21215;SDS011;10765;50.954;5.322;2023-03-25T01:05:50;4.03;;;1.00;;
21215;SDS011;10765;50.954;5.322;2023-03-25T01:08:20;3.57;;;1.20;;
21215;SDS011;10765;50.954;5.322;2023-03-25T01:10:49;2.63;;;1.17;;
21215;SDS011;10765;50.954;5.322;2023-03-25T01:13:17;2.47;;;1.23;;
21215;SDS011;10765;50.954;5.322;2023-03-25T01:15:45;2.50;;;1.20;;
21215;SDS011;10765;50.954;5.322;2023-03-25T01:18:12;2.73;;;1.00;;
21215;SDS011;10765;50.954;5.322;2023-03-25T01:20:40;3.50;;;1.10;;
21215;SDS011;10765;50.954;5.322;2023-03-25T01:23:07;3.13;;;1.40;;
21215;SDS011;10765;50.954;5.322;2023-03-25T01:25:34;2.90;;;1.23;;
21215;SDS011;10765;50.954;5.322;2023-03-25T01:28:02;2.60;;;1.10;;
21215;SDS011;10765;50.954;5.322;2023-03-25T01:30:29;2.93;;;1.30;;
21215;SDS011;10765;50.954;5.322;2023-03-25T01:32:56;5.17;;;1.30;;
21215;SDS011;10765;50.954;5.322;2023-03-25T01:35:24;3.63;;;1.50;;
21215;SDS011;10765;50.954;5.322;2023-03-25T01:37:52;2.13;;;1.00;;
21215;SDS011;10765;50.954;5.322;2023-03-25T01:40:20;3.03;;;1.20;;
21215;SDS011;10765;50.954;5.322;2023-03-25T01:42:48;2.93;;;0.97;;
21215;SDS011;10765;50.954;5.322;2023-03-25T01:45:23;3.93;;;1.40;;
21215;SDS011;10765;50.954;5.322;2023-03-25T01:47:53;4.17;;;1.50;;
21215;SDS011;10765;50.954;5.322;2023-03-25T01:50:25;2.40;;;1.17;;
21215;SDS011;10765;50.954;5.322;2023-03-25T01:52:54;5.57;;;1.47;;
21215;SDS011;10765;50.954;5.322;2023-03-25T01:55:24;4.03;;;1.37;;
21215;SDS011;10765;50.954;5.322;2023-03-25T01:57:51;6.27;;;1.50;;
21215;SDS011;10765;50.954;5.322;2023-03-25T02:00:23;5.73;;;1.70;;
21215;SDS011;10765;50.954;5.322;2023-03-25T02:02:52;5.70;;;1.60;;
21215;SDS011;10765;50.954;5.322;2023-03-25T02:05:24;4.30;;;1.10;;
21215;SDS011;10765;50.954;5.322;2023-03-25T02:07:58;4.87;;;1.50;;
21215;SDS011;10765;50.954;5.322;2023-03-25T02:10:29;6.60;;;1.80;;
21215;SDS011;10765;50.954;5.322;2023-03-25T02:12:58;5.20;;;1.30;;
21215;SDS011;10765;50.954;5.322;2023-03-25T02:15:26;4.27;;;1.30;;
21215;SDS011;10765;50.954;5.322;2023-03-25T02:18:12;5.30;;;1.40;;
21215;SDS011;10765;50.954;5.322;2023-03-25T02:27:11;6.97;;;1.50;;
21215;SDS011;10765;50.954;5.322;2023-03-25T02:29:56;5.50;;;1.50;;
21215;SDS011;10765;50.954;5.322;2023-03-25T02:32:48;4.87;;;1.80;;
21215;SDS011;10765;50.954;5.322;2023-03-25T02:35:32;4.13;;;1.23;;
21215;SDS011;10765;50.954;5.322;2023-03-25T02:38:30;5.47;;;1.43;;
21215;SDS011;10765;50.954;5.322;2023-03-25T02:41:05;6.80;;;1.70;;
21215;SDS011;10765;50.954;5.322;2023-03-25T02:43:40;7.27;;;1.77;;
21215;SDS011;10765;50.954;5.322;2023-03-25T02:46:11;5.47;;;1.60;;
21215;SDS011;10765;50.954;5.322;2023-03-25T02:48:44;5.67;;;1.53;;
21215;SDS011;10765;50.954;5.322;2023-03-25T02:51:19;4.97;;;1.30;;
21215;SDS011;10765;50.954;5.322;2023-03-25T02:53:51;5.27;;;1.40;;
21215;SDS011;10765;50.954;5.322;2023-03-25T02:56:20;4.43;;;1.33;;
21215;SDS011;10765;50.954;5.322;2023-03-25T02:58:51;4.63;;;1.50;;
21215;SDS011;10765;50.954;5.322;2023-03-25T03:01:20;3.83;;;1.27;;
21215;SDS011;10765;50.954;5.322;2023-03-25T03:03:51;5.73;;;1.50;;
21215;SDS011;10765;50.954;5.322;2023-03-25T03:06:18;5.30;;;1.30;;
21215;SDS011;10765;50.954;5.322;2023-03-25T03:08:59;6.73;;;1.33;;
21215;SDS011;10765;50.954;5.322;2023-03-25T03:11:48;6.37;;;1.27;;
21215;SDS011;10765;50.954;5.322;2023-03-25T03:14:30;4.67;;;1.27;;
21215;SDS011;10765;50.954;5.322;2023-03-25T03:17:11;5.27;;;1.60;;
21215;SDS011;10765;50.954;5.322;2023-03-25T03:19:45;2.57;;;1.10;;
21215;SDS011;10765;50.954;5.322;2023-03-25T03:22:21;4.17;;;1.00;;
21215;SDS011;10765;50.954;5.322;2023-03-25T03:25:08;3.77;;;1.20;;
21215;SDS011;10765;50.954;5.322;2023-03-25T03:27:46;5.00;;;1.33;;
21215;SDS011;10765;50.954;5.322;2023-03-25T03:30:19;4.53;;;1.10;;
21215;SDS011;10765;50.954;5.322;2023-03-25T03:32:54;5.53;;;1.43;;
21215;SDS011;10765;50.954;5.322;2023-03-25T03:35:28;6.83;;;1.50;;
21215;SDS011;10765;50.954;5.322;2023-03-25T03:37:59;5.33;;;1.43;;
21215;SDS011;10765;50.954;5.322;2023-03-25T03:40:31;7.23;;;1.63;;
21215;SDS011;10765;50.954;5.322;2023-03-25T03:43:02;5.30;;;1.40;;
21215;SDS011;10765;50.954;5.322;2023-03-25T03:45:33;6.93;;;1.47;;
21215;SDS011;10765;50.954;5.322;2023-03-25T03:48:04;6.13;;;1.60;;
21215;SDS011;10765;50.954;5.322;2023-03-25T03:50:38;5.43;;;1.50;;
21215;SDS011;10765;50.954;5.322;2023-03-25T03:53:11;5.97;;;1.73;;
21215;SDS011;10765;50.954;5.322;2023-03-25T03:55:43;4.57;;;1.60;;
21215;SDS011;10765;50.954;5.322;2023-03-25T03:58:15;3.90;;;1.30;;
21215;SDS011;10765;50.954;5.322;2023-03-25T04:00:49;4.80;;;1.30;;
21215;SDS011;10765;50.954;5.322;2023-03-25T04:03:25;7.30;;;1.60;;
21215;SDS011;10765;50.954;5.322;2023-03-25T04:05:59;6.20;;;1.33;;
21215;SDS011;10765;50.954;5.322;2023-03-25T04:08:33;4.87;;;1.37;;
21215;SDS011;10765;50.954;5.322;2023-03-25T04:11:09;4.37;;;1.10;;
21215;SDS011;10765;50.954;5.322;2023-03-25T04:13:41;6.10;;;1.73;;
21215;SDS011;10765;50.954;5.322;2023-03-25T04:16:12;4.53;;;1.60;;
21215;SDS011;10765;50.954;5.322;2023-03-25T04:18:41;6.67;;;1.70;;
21215;SDS011;10765;50.954;5.322;2023-03-25T04:21:12;7.67;;;1.60;;
21215;SDS011;10765;50.954;5.322;2023-03-25T04:23:39;5.23;;;1.83;;
21215;SDS011;10765;50.954;5.322;2023-03-25T04:26:07;4.30;;;1.47;;
21215;SDS011;10765;50.954;5.322;2023-03-25T04:28:34;5.20;;;1.80;;
21215;SDS011;10765;50.954;5.322;2023-03-25T04:31:01;3.93;;;1.47;;
21215;SDS011;10765;50.954;5.322;2023-03-25T04:33:31;5.67;;;1.40;;
21215;SDS011;10765;50.954;5.322;2023-03-25T04:36:00;4.43;;;1.30;;
21215;SDS011;10765;50.954;5.322;2023-03-25T04:38:27;5.53;;;1.87;;
21215;SDS011;10765;50.954;5.322;2023-03-25T04:40:54;4.53;;;1.60;;
21215;SDS011;10765;50.954;5.322;2023-03-25T04:43:23;7.70;;;1.60;;
21215;SDS011;10765;50.954;5.322;2023-03-25T04:45:50;6.63;;;1.60;;
21215;SDS011;10765;50.954;5.322;2023-03-25T04:48:20;6.37;;;1.70;;
21215;SDS011;10765;50.954;5.322;2023-03-25T04:50:50;6.83;;;1.87;;
21215;SDS011;10765;50.954;5.322;2023-03-25T04:53:18;8.27;;;2.00;;
21215;SDS011;10765;50.954;5.322;2023-03-25T04:55:46;9.90;;;2.03;;
21215;SDS011;10765;50.954;5.322;2023-03-25T04:58:14;6.60;;;1.80;;
21215;SDS011;10765;50.954;5.322;2023-03-25T05:00:43;8.23;;;2.00;;
21215;SDS011;10765;50.954;5.322;2023-03-25T05:03:11;7.43;;;1.60;;
21215;SDS011;10765;50.954;5.322;2023-03-25T05:05:39;7.83;;;1.90;;
21215;SDS011;10765;50.954;5.322;2023-03-25T05:08:07;7.93;;;1.80;;
21215;SDS011;10765;50.954;5.322;2023-03-25T05:10:35;7.97;;;1.80;;
21215;SDS011;10765;50.954;5.322;2023-03-25T05:13:03;9.33;;;2.60;;
21215;SDS011;10765;50.954;5.322;2023-03-25T05:15:31;7.00;;;2.30;;
21215;SDS011;10765;50.954;5.322;2023-03-25T05:18:04;6.97;;;2.10;;
21215;SDS011;10765;50.954;5.322;2023-03-25T05:20:33;8.50;;;1.93;;
21215;SDS011;10765;50.954;5.322;2023-03-25T05:23:02;7.40;;;2.40;;
21215;SDS011;10765;50.954;5.322;2023-03-25T05:25:29;7.83;;;2.50;;
21215;SDS011;10765;50.954;5.322;2023-03-25T05:27:58;7.70;;;2.27;;
21215;SDS011;10765;50.954;5.322;2023-03-25T05:30:26;6.87;;;1.90;;
21215;SDS011;10765;50.954;5.322;2023-03-25T05:32:56;6.77;;;2.30;;
21215;SDS011;10765;50.954;5.322;2023-03-25T05:35:25;7.53;;;2.13;;
21215;SDS011;10765;50.954;5.322;2023-03-25T05:37:52;9.30;;;2.23;;
21215;SDS011;10765;50.954;5.322;2023-03-25T05:40:19;7.00;;;1.97;;
21215;SDS011;10765;50.954;5.322;2023-03-25T05:42:49;5.47;;;1.80;;
21215;SDS011;10765;50.954;5.322;2023-03-25T05:45:18;6.27;;;2.03;;
21215;SDS011;10765;50.954;5.322;2023-03-25T05:47:46;6.43;;;2.07;;
21215;SDS011;10765;50.954;5.322;2023-03-25T05:50:13;5.97;;;1.87;;
21215;SDS011;10765;50.954;5.322;2023-03-25T05:52:43;5.97;;;1.77;;
21215;SDS011;10765;50.954;5.322;2023-03-25T05:55:14;6.53;;;2.10;;
21215;SDS011;10765;50.954;5.322;2023-03-25T05:57:42;4.50;;;1.90;;
21215;SDS011;10765;50.954;5.322;2023-03-25T06:00:10;5.77;;;1.43;;
21215;SDS011;10765;50.954;5.322;2023-03-25T06:02:43;5.13;;;1.87;;
21215;SDS011;10765;50.954;5.322;2023-03-25T06:05:11;6.83;;;2.13;;
21215;SDS011;10765;50.954;5.322;2023-03-25T06:07:39;4.33;;;1.70;;
21215;SDS011;10765;50.954;5.322;2023-03-25T06:10:08;7.50;;;2.00;;
21215;SDS011;10765;50.954;5.322;2023-03-25T06:12:36;7.17;;;2.37;;
21215;SDS011;10765;50.954;5.322;2023-03-25T06:15:04;6.37;;;2.20;;
21215;SDS011;10765;50.954;5.322;2023-03-25T06:17:32;6.57;;;2.07;;
21215;SDS011;10765;50.954;5.322;2023-03-25T06:20:03;5.93;;;2.00;;
21215;SDS011;10765;50.954;5.322;2023-03-25T06:22:36;7.20;;;2.03;;
21215;SDS011;10765;50.954;5.322;2023-03-25T06:25:04;9.47;;;2.73;;
21215;SDS011;10765;50.954;5.322;2023-03-25T06:27:34;6.30;;;2.40;;
21215;SDS011;10765;50.954;5.322;2023-03-25T06:30:05;8.27;;;2.73;;
21215;SDS011;10765;50.954;5.322;2023-03-25T06:32:34;7.47;;;2.47;;
21215;SDS011;10765;50.954;5.322;2023-03-25T06:35:01;10.13;;;2.70;;
21215;SDS011;10765;50.954;5.322;2023-03-25T06:37:29;7.47;;;2.40;;
21215;SDS011;10765;50.954;5.322;2023-03-25T06:39:56;6.97;;;2.70;;
21215;SDS011;10765;50.954;5.322;2023-03-25T06:42:24;9.13;;;2.60;;
21215;SDS011;10765;50.954;5.322;2023-03-25T06:44:52;8.53;;;2.77;;
21215;SDS011;10765;50.954;5.322;2023-03-25T06:47:19;11.40;;;2.63;;
21215;SDS011;10765;50.954;5.322;2023-03-25T06:49:47;7.17;;;2.37;;
21215;SDS011;10765;50.954;5.322;2023-03-25T06:52:14;7.73;;;2.67;;
21215;SDS011;10765;50.954;5.322;2023-03-25T06:54:41;9.13;;;2.67;;
21215;SDS011;10765;50.954;5.322;2023-03-25T06:57:08;6.63;;;2.30;;
21215;SDS011;10765;50.954;5.322;2023-03-25T06:59:35;6.87;;;2.30;;
21215;SDS011;10765;50.954;5.322;2023-03-25T07:02:03;7.03;;;2.10;;
21215;SDS011;10765;50.954;5.322;2023-03-25T07:04:30;4.37;;;2.10;;
21215;SDS011;10765;50.954;5.322;2023-03-25T07:06:57;6.97;;;2.43;;
21215;SDS011;10765;50.954;5.322;2023-03-25T07:09:24;8.30;;;2.03;;
21215;SDS011;10765;50.954;5.322;2023-03-25T07:11:51;5.67;;;1.77;;
21215;SDS011;10765;50.954;5.322;2023-03-25T07:14:18;8.90;;;2.43;;
21215;SDS011;10765;50.954;5.322;2023-03-25T07:16:45;7.33;;;2.73;;
21215;SDS011;10765;50.954;5.322;2023-03-25T07:19:13;6.70;;;2.10;;
21215;SDS011;10765;50.954;5.322;2023-03-25T07:21:40;7.57;;;2.03;;
21215;SDS011;10765;50.954;5.322;2023-03-25T07:24:07;10.77;;;2.53;;
21215;SDS011;10765;50.954;5.322;2023-03-25T07:26:34;11.73;;;2.70;;
21215;SDS011;10765;50.954;5.322;2023-03-25T07:29:01;5.90;;;2.53;;
21215;SDS011;10765;50.954;5.322;2023-03-25T07:31:28;9.33;;;2.40;;
21215;SDS011;10765;50.954;5.322;2023-03-25T07:33:55;5.53;;;1.90;;
21215;SDS011;10765;50.954;5.322;2023-03-25T07:36:25;5.03;;;2.10;;
21215;SDS011;10765;50.954;5.322;2023-03-25T07:38:53;10.37;;;2.60;;
21215;SDS011;10765;50.954;5.322;2023-03-25T07:41:20;9.07;;;2.10;;
21215;SDS011;10765;50.954;5.322;2023-03-25T07:43:47;7.23;;;2.00;;
21215;SDS011;10765;50.954;5.322;2023-03-25T07:46:14;9.83;;;2.40;;
21215;SDS011;10765;50.954;5.322;2023-03-25T07:48:41;11.03;;;2.40;;
21215;SDS011;10765;50.954;5.322;2023-03-25T07:51:08;11.43;;;2.60;;
21215;SDS011;10765;50.954;5.322;2023-03-25T07:53:36;9.63;;;2.27;;
21215;SDS011;10765;50.954;5.322;2023-03-25T07:56:06;10.87;;;2.60;;
21215;SDS011;10765;50.954;5.322;2023-03-25T07:58:34;10.63;;;2.60;;
21215;SDS011;10765;50.954;5.322;2023-03-25T08:01:01;8.80;;;2.77;;
21215;SDS011;10765;50.954;5.322;2023-03-25T08:03:28;9.27;;;2.50;;
21215;SDS011;10765;50.954;5.322;2023-03-25T08:05:58;6.90;;;2.23;;
21215;SDS011;10765;50.954;5.322;2023-03-25T08:08:26;12.37;;;2.70;;
21215;SDS011;10765;50.954;5.322;2023-03-25T08:10:56;8.90;;;2.57;;
21215;SDS011;10765;50.954;5.322;2023-03-25T08:13:23;10.47;;;2.63;;
21215;SDS011;10765;50.954;5.322;2023-03-25T08:15:51;9.23;;;2.67;;
21215;SDS011;10765;50.954;5.322;2023-03-25T08:18:18;7.73;;;2.80;;
21215;SDS011;10765;50.954;5.322;2023-03-25T08:20:45;8.23;;;2.60;;
21215;SDS011;10765;50.954;5.322;2023-03-25T08:23:13;10.27;;;2.77;;
21215;SDS011;10765;50.954;5.322;2023-03-25T08:25:42;9.90;;;2.37;;
21215;SDS011;10765;50.954;5.322;2023-03-25T08:28:11;9.03;;;2.80;;
21215;SDS011;10765;50.954;5.322;2023-03-25T08:30:41;7.20;;;2.17;;
21215;SDS011;10765;50.954;5.322;2023-03-25T08:33:08;12.37;;;2.63;;
21215;SDS011;10765;50.954;5.322;2023-03-25T08:35:36;9.00;;;2.70;;
21215;SDS011;10765;50.954;5.322;2023-03-25T08:38:03;11.63;;;2.70;;
21215;SDS011;10765;50.954;5.322;2023-03-25T08:40:30;8.53;;;2.53;;
21215;SDS011;10765;50.954;5.322;2023-03-25T08:42:58;7.50;;;2.37;;
21215;SDS011;10765;50.954;5.322;2023-03-25T08:45:26;7.47;;;2.73;;
21215;SDS011;10765;50.954;5.322;2023-03-25T08:47:53;9.17;;;2.90;;
21215;SDS011;10765;50.954;5.322;2023-03-25T08:50:20;6.40;;;2.20;;
21215;SDS011;10765;50.954;5.322;2023-03-25T08:52:47;7.53;;;2.20;;
21215;SDS011;10765;50.954;5.322;2023-03-25T08:55:14;9.33;;;3.00;;
21215;SDS011;10765;50.954;5.322;2023-03-25T08:57:41;8.13;;;2.37;;
21215;SDS011;10765;50.954;5.322;2023-03-25T09:00:09;5.27;;;2.30;;
21215;SDS011;10765;50.954;5.322;2023-03-25T09:02:40;10.73;;;2.97;;
21215;SDS011;10765;50.954;5.322;2023-03-25T09:05:07;10.13;;;2.30;;
21215;SDS011;10765;50.954;5.322;2023-03-25T09:07:35;10.27;;;2.53;;
21215;SDS011;10765;50.954;5.322;2023-03-25T09:10:03;7.37;;;2.93;;
21215;SDS011;10765;50.954;5.322;2023-03-25T09:12:31;10.47;;;3.00;;
21215;SDS011;10765;50.954;5.322;2023-03-25T09:14:58;11.43;;;2.80;;
21215;SDS011;10765;50.954;5.322;2023-03-25T09:17:25;10.27;;;2.93;;
21215;SDS011;10765;50.954;5.322;2023-03-25T09:19:54;9.60;;;2.27;;
21215;SDS011;10765;50.954;5.322;2023-03-25T09:22:21;11.73;;;2.80;;
21215;SDS011;10765;50.954;5.322;2023-03-25T09:24:48;8.40;;;2.83;;
21215;SDS011;10765;50.954;5.322;2023-03-25T09:27:15;10.17;;;2.87;;
21215;SDS011;10765;50.954;5.322;2023-03-25T09:29:42;11.83;;;3.03;;
21215;SDS011;10765;50.954;5.322;2023-03-25T09:32:08;13.17;;;2.87;;
21215;SDS011;10765;50.954;5.322;2023-03-25T09:34:35;8.53;;;2.50;;
21215;SDS011;10765;50.954;5.322;2023-03-25T09:37:04;8.50;;;2.63;;
21215;SDS011;10765;50.954;5.322;2023-03-25T09:39:31;12.67;;;2.37;;
21215;SDS011;10765;50.954;5.322;2023-03-25T09:42:10;12.60;;;2.63;;
21215;SDS011;10765;50.954;5.322;2023-03-25T09:44:56;8.90;;;2.03;;
21215;SDS011;10765;50.954;5.322;2023-03-25T09:47:30;8.43;;;2.10;;
21215;SDS011;10765;50.954;5.322;2023-03-25T09:50:00;7.87;;;2.17;;
21215;SDS011;10765;50.954;5.322;2023-03-25T09:52:32;6.63;;;2.30;;
21215;SDS011;10765;50.954;5.322;2023-03-25T09:55:10;7.63;;;2.20;;
21215;SDS011;10765;50.954;5.322;2023-03-25T09:57:45;7.20;;;2.03;;
21215;SDS011;10765;50.954;5.322;2023-03-25T10:00:15;7.27;;;2.30;;
21215;SDS011;10765;50.954;5.322;2023-03-25T10:02:45;7.60;;;2.20;;
21215;SDS011;10765;50.954;5.322;2023-03-25T10:05:21;8.17;;;2.37;;
21215;SDS011;10765;50.954;5.322;2023-03-25T10:08:06;7.50;;;2.27;;
21215;SDS011;10765;50.954;5.322;2023-03-25T10:10:42;5.77;;;1.93;;
21215;SDS011;10765;50.954;5.322;2023-03-25T10:13:14;6.13;;;1.90;;
21215;SDS011;10765;50.954;5.322;2023-03-25T10:15:47;9.17;;;2.63;;
21215;SDS011;10765;50.954;5.322;2023-03-25T10:21:29;10.27;;;2.40;;
21215;SDS011;10765;50.954;5.322;2023-03-25T10:24:05;8.83;;;2.60;;
21215;SDS011;10765;50.954;5.322;2023-03-25T10:26:43;9.10;;;2.60;;
21215;SDS011;10765;50.954;5.322;2023-03-25T10:29:14;11.37;;;2.80;;
21215;SDS011;10765;50.954;5.322;2023-03-25T10:31:48;9.57;;;2.80;;
21215;SDS011;10765;50.954;5.322;2023-03-25T10:34:18;11.40;;;3.13;;
21215;SDS011;10765;50.954;5.322;2023-03-25T10:36:50;10.37;;;3.03;;
21215;SDS011;10765;50.954;5.322;2023-03-25T10:39:23;11.20;;;3.73;;
21215;SDS011;10765;50.954;5.322;2023-03-25T10:42:02;13.47;;;3.33;;
21215;SDS011;10765;50.954;5.322;2023-03-25T10:44:43;9.63;;;2.77;;
21215;SDS011;10765;50.954;5.322;2023-03-25T10:47:11;9.13;;;3.07;;
21215;SDS011;10765;50.954;5.322;2023-03-25T10:49:42;12.83;;;3.07;;
21215;SDS011;10765;50.954;5.322;2023-03-25T10:52:12;12.10;;;3.27;;
21215;SDS011;10765;50.954;5.322;2023-03-25T10:54:42;13.03;;;3.10;;
21215;SDS011;10765;50.954;5.322;2023-03-25T10:57:12;12.13;;;2.90;;
21215;SDS011;10765;50.954;5.322;2023-03-25T10:59:48;13.10;;;3.87;;
21215;SDS011;10765;50.954;5.322;2023-03-25T11:02:23;10.90;;;3.40;;
21215;SDS011;10765;50.954;5.322;2023-03-25T11:04:53;9.63;;;3.40;;
21215;SDS011;10765;50.954;5.322;2023-03-25T11:07:22;10.33;;;3.17;;
21215;SDS011;10765;50.954;5.322;2023-03-25T11:10:01;12.23;;;3.20;;
21215;SDS011;10765;50.954;5.322;2023-03-25T11:12:35;10.03;;;2.87;;
21215;SDS011;10765;50.954;5.322;2023-03-25T11:15:03;13.73;;;3.40;;
21215;SDS011;10765;50.954;5.322;2023-03-25T11:17:31;10.70;;;3.13;;
21215;SDS011;10765;50.954;5.322;2023-03-25T11:20:01;14.30;;;3.33;;
21215;SDS011;10765;50.954;5.322;2023-03-25T11:22:35;11.60;;;3.70;;
21215;SDS011;10765;50.954;5.322;2023-03-25T11:25:05;8.43;;;2.80;;
21215;SDS011;10765;50.954;5.322;2023-03-25T11:27:42;9.57;;;3.00;;
21215;SDS011;10765;50.954;5.322;2023-03-25T11:30:14;8.23;;;2.57;;
21215;SDS011;10765;50.954;5.322;2023-03-25T11:32:44;9.77;;;2.90;;
21215;SDS011;10765;50.954;5.322;2023-03-25T11:35:24;10.47;;;3.33;;
21215;SDS011;10765;50.954;5.322;2023-03-25T11:37:53;9.23;;;2.80;;
21215;SDS011;10765;50.954;5.322;2023-03-25T11:40:24;10.20;;;2.70;;
21215;SDS011;10765;50.954;5.322;2023-03-25T11:42:53;6.53;;;2.40;;
21215;SDS011;10765;50.954;5.322;2023-03-25T11:45:21;12.60;;;3.10;;
21215;SDS011;10765;50.954;5.322;2023-03-25T11:47:51;8.33;;;2.80;;
21215;SDS011;10765;50.954;5.322;2023-03-25T11:50:21;4.97;;;2.10;;
21215;SDS011;10765;50.954;5.322;2023-03-25T11:52:51;10.57;;;2.60;;
21215;SDS011;10765;50.954;5.322;2023-03-25T11:55:22;9.37;;;2.70;;
21215;SDS011;10765;50.954;5.322;2023-03-25T11:57:53;7.43;;;2.57;;
21215;SDS011;10765;50.954;5.322;2023-03-25T12:00:31;6.77;;;2.47;;
21215;SDS011;10765;50.954;5.322;2023-03-25T12:03:03;10.43;;;2.50;;
21215;SDS011;10765;50.954;5.322;2023-03-25T12:05:31;9.37;;;2.60;;
21215;SDS011;10765;50.954;5.322;2023-03-25T12:08:00;7.60;;;2.53;;
21215;SDS011;10765;50.954;5.322;2023-03-25T12:10:44;8.87;;;2.57;;
21215;SDS011;10765;50.954;5.322;2023-03-25T12:13:17;9.77;;;2.90;;
21215;SDS011;10765;50.954;5.322;2023-03-25T12:15:59;9.57;;;2.40;;
21215;SDS011;10765;50.954;5.322;2023-03-25T12:18:48;9.27;;;2.73;;
21215;SDS011;10765;50.954;5.322;2023-03-25T12:21:28;12.70;;;3.93;;
21215;SDS011;10765;50.954;5.322;2023-03-25T12:24:08;8.33;;;2.73;;
21215;SDS011;10765;50.954;5.322;2023-03-25T12:26:48;12.10;;;3.07;;
21215;SDS011;10765;50.954;5.322;2023-03-25T12:29:28;9.63;;;3.20;;
21215;SDS011;10765;50.954;5.322;2023-03-25T12:32:06;10.13;;;3.17;;
21215;SDS011;10765;50.954;5.322;2023-03-25T12:34:47;7.47;;;2.47;;
21215;SDS011;10765;50.954;5.322;2023-03-25T12:37:25;9.00;;;2.60;;
21215;SDS011;10765;50.954;5.322;2023-03-25T12:43:02;7.43;;;1.63;;
21215;SDS011;10765;50.954;5.322;2023-03-25T12:48:34;6.50;;;1.40;;
21215;SDS011;10765;50.954;5.322;2023-03-25T12:51:13;9.90;;;1.80;;
21215;SDS011;10765;50.954;5.322;2023-03-25T12:53:52;8.60;;;2.10;;
21215;SDS011;10765;50.954;5.322;2023-03-25T12:56:39;7.80;;;2.57;;
21215;SDS011;10765;50.954;5.322;2023-03-25T12:59:28;7.37;;;2.07;;
21215;SDS011;10765;50.954;5.322;2023-03-25T13:02:19;8.17;;;2.50;;
21215;SDS011;10765;50.954;5.322;2023-03-25T13:05:04;7.80;;;2.10;;
21215;SDS011;10765;50.954;5.322;2023-03-25T13:07:43;6.73;;;2.33;;
21215;SDS011;10765;50.954;5.322;2023-03-25T13:10:13;8.83;;;2.00;;
21215;SDS011;10765;50.954;5.322;2023-03-25T13:12:44;6.67;;;1.90;;
21215;SDS011;10765;50.954;5.322;2023-03-25T13:15:16;7.00;;;2.07;;
21215;SDS011;10765;50.954;5.322;2023-03-25T13:17:46;8.73;;;2.43;;
21215;SDS011;10765;50.954;5.322;2023-03-25T13:20:16;7.00;;;1.87;;
21215;SDS011;10765;50.954;5.322;2023-03-25T13:22:46;6.60;;;2.23;;
21215;SDS011;10765;50.954;5.322;2023-03-25T13:25:18;5.43;;;1.83;;
21215;SDS011;10765;50.954;5.322;2023-03-25T13:27:49;7.07;;;1.87;;
21215;SDS011;10765;50.954;5.322;2023-03-25T13:30:22;6.57;;;2.13;;
21215;SDS011;10765;50.954;5.322;2023-03-25T13:32:54;7.37;;;1.87;;
21215;SDS011;10765;50.954;5.322;2023-03-25T13:35:28;5.53;;;1.63;;
21215;SDS011;10765;50.954;5.322;2023-03-25T13:38:02;9.23;;;2.10;;
21215;SDS011;10765;50.954;5.322;2023-03-25T13:40:35;7.70;;;1.87;;
21215;SDS011;10765;50.954;5.322;2023-03-25T13:43:11;4.77;;;1.70;;
21215;SDS011;10765;50.954;5.322;2023-03-25T13:45:48;6.60;;;1.70;;
21215;SDS011;10765;50.954;5.322;2023-03-25T13:48:19;4.10;;;1.43;;
21215;SDS011;10765;50.954;5.322;2023-03-25T13:50:52;5.10;;;1.57;;
21215;SDS011;10765;50.954;5.322;2023-03-25T13:53:22;6.10;;;1.77;;
21215;SDS011;10765;50.954;5.322;2023-03-25T13:55:57;4.93;;;1.70;;
21215;SDS011;10765;50.954;5.322;2023-03-25T13:58:38;9.50;;;2.10;;
21215;SDS011;10765;50.954;5.322;2023-03-25T14:01:25;5.80;;;1.73;;
21215;SDS011;10765;50.954;5.322;2023-03-25T14:04:22;5.30;;;1.47;;
21215;SDS011;10765;50.954;5.322;2023-03-25T14:07:07;5.10;;;1.73;;
21215;SDS011;10765;50.954;5.322;2023-03-25T14:09:59;8.90;;;2.20;;
21215;SDS011;10765;50.954;5.322;2023-03-25T14:12:36;6.53;;;2.10;;
21215;SDS011;10765;50.954;5.322;2023-03-25T14:15:09;7.60;;;2.33;;
21215;SDS011;10765;50.954;5.322;2023-03-25T14:17:41;8.93;;;2.47;;
21215;SDS011;10765;50.954;5.322;2023-03-25T14:20:11;7.53;;;2.50;;
21215;SDS011;10765;50.954;5.322;2023-03-25T14:22:53;6.93;;;2.20;;
21215;SDS011;10765;50.954;5.322;2023-03-25T14:25:26;7.67;;;2.07;;
21215;SDS011;10765;50.954;5.322;2023-03-25T14:27:58;8.47;;;2.10;;
21215;SDS011;10765;50.954;5.322;2023-03-25T14:30:26;7.10;;;2.47;;
21215;SDS011;10765;50.954;5.322;2023-03-25T14:32:56;9.43;;;2.40;;
21215;SDS011;10765;50.954;5.322;2023-03-25T14:44:26;7.73;;;2.20;;
21215;SDS011;10765;50.954;5.322;2023-03-25T14:47:00;7.53;;;2.20;;
21215;SDS011;10765;50.954;5.322;2023-03-25T14:49:51;7.10;;;2.50;;
21215;SDS011;10765;50.954;5.322;2023-03-25T14:52:22;6.40;;;1.97;;
21215;SDS011;10765;50.954;5.322;2023-03-25T14:54:54;8.17;;;2.10;;
21215;SDS011;10765;50.954;5.322;2023-03-25T14:57:22;7.30;;;2.50;;
21215;SDS011;10765;50.954;5.322;2023-03-25T14:59:52;10.13;;;2.83;;
21215;SDS011;10765;50.954;5.322;2023-03-25T15:02:23;9.37;;;2.47;;
21215;SDS011;10765;50.954;5.322;2023-03-25T15:05:00;8.27;;;1.90;;
21215;SDS011;10765;50.954;5.322;2023-03-25T15:07:39;6.43;;;1.97;;
21215;SDS011;10765;50.954;5.322;2023-03-25T15:10:17;5.57;;;1.90;;
21215;SDS011;10765;50.954;5.322;2023-03-25T15:12:48;10.20;;;2.63;;
21215;SDS011;10765;50.954;5.322;2023-03-25T15:21:33;7.73;;;2.17;;
21215;SDS011;10765;50.954;5.322;2023-03-25T15:24:46;5.03;;;1.90;;
21215;SDS011;10765;50.954;5.322;2023-03-25T15:27:18;9.30;;;2.60;;
21215;SDS011;10765;50.954;5.322;2023-03-25T15:30:07;6.57;;;1.70;;
21215;SDS011;10765;50.954;5.322;2023-03-25T15:32:55;8.03;;;1.80;;
21215;SDS011;10765;50.954;5.322;2023-03-25T15:35:49;6.77;;;2.03;;
21215;SDS011;10765;50.954;5.322;2023-03-25T15:41:30;7.33;;;2.10;;
21215;SDS011;10765;50.954;5.322;2023-03-25T15:44:22;6.50;;;2.13;;
21215;SDS011;10765;50.954;5.322;2023-03-25T15:47:13;6.97;;;2.10;;